Time;durP1;ratioP1;P1;durP2;ratioP2;P2;SDS_P1;SDS_P2;PMS_P1;PMS_P2;Temp;Humidity;BMP_temperature;BMP_pressure;BME280_temperature;BME280_humidity;BME280_pressure;Samples;Min_cycle;Max_cycle;Signal;HPM_P1;HPM_P2
2022/04/30 00:01:09;;;;;;;12.43;10.23;;;10.40;99.90;;;;;;5123825;28;20199;-80
2022/04/30 00:03:38;;;;;;;13.43;11.40;;;10.20;99.90;;;;;;5124724;28;20202;-80
2022/04/30 00:06:06;;;;;;;14.37;12.93;;;10.00;99.90;;;;;;5124137;28;20686;-80
2022/04/30 00:08:33;;;;;;;12.17;10.97;;;10.00;99.90;;;;;;5122479;28;20221;-79
2022/04/30 00:11:00;;;;;;;12.37;11.07;;;10.00;99.90;;;;;;5123192;28;20207;-80
2022/04/30 00:13:30;;;;;;;13.30;12.00;;;10.00;99.90;;;;;;5123452;28;20200;-80
2022/04/30 00:15:59;;;;;;;12.40;11.30;;;9.90;99.90;;;;;;5124019;28;20227;-80
2022/04/30 00:18:26;;;;;;;13.17;11.40;;;9.90;99.90;;;;;;5107603;28;20211;-80
2022/04/30 00:20:53;;;;;;;13.67;11.53;;;9.90;99.90;;;;;;5106863;28;20199;-80
2022/04/30 00:23:20;;;;;;;14.07;12.33;;;9.90;99.90;;;;;;5125826;28;20221;-80
2022/04/30 00:25:49;;;;;;;14.43;13.13;;;10.00;99.90;;;;;;5126454;28;20210;-80
2022/04/30 00:28:17;;;;;;;13.40;12.10;;;10.00;99.90;;;;;;5125654;28;20225;-80
2022/04/30 00:30:45;;;;;;;13.00;11.80;;;10.00;99.90;;;;;;5124648;28;20635;-80
2022/04/30 00:33:12;;;;;;;14.47;13.07;;;10.00;99.90;;;;;;5126074;28;20332;-80
2022/04/30 00:35:39;;;;;;;14.60;13.10;;;10.00;99.90;;;;;;5126184;28;20223;-79
2022/04/30 00:38:06;;;;;;;15.37;13.47;;;10.00;99.90;;;;;;5127394;28;20249;-80
2022/04/30 00:40:34;;;;;;;14.43;13.10;;;10.00;99.90;;;;;;5127271;28;20540;-80
2022/04/30 00:43:01;;;;;;;13.83;12.53;;;10.10;99.90;;;;;;5128621;28;20199;-80
2022/04/30 00:45:28;;;;;;;15.13;13.60;;;10.20;99.90;;;;;;5128547;28;20589;-79
2022/04/30 00:47:55;;;;;;;13.90;12.63;;;10.20;99.90;;;;;;5127701;28;20196;-80
2022/04/30 00:50:25;;;;;;;14.07;12.67;;;10.30;99.90;;;;;;5128981;28;20291;-81
2022/04/30 00:52:53;;;;;;;13.77;12.40;;;10.20;99.90;;;;;;5132015;28;20199;-80
2022/04/30 00:55:23;;;;;;;14.10;12.80;;;10.20;99.90;;;;;;5132350;28;20223;-81
2022/04/30 00:57:55;;;;;;;14.13;12.47;;;10.30;99.90;;;;;;5131120;28;20287;-80
2022/04/30 01:00:22;;;;;;;14.10;12.20;;;10.10;99.90;;;;;;5132057;28;20263;-80
2022/04/30 01:02:49;;;;;;;13.70;12.10;;;10.20;99.90;;;;;;5130100;28;20203;-79
2022/04/30 01:05:16;;;;;;;13.50;12.13;;;10.20;99.90;;;;;;5128765;28;20203;-80
2022/04/30 01:07:43;;;;;;;13.23;11.93;;;10.10;99.90;;;;;;5129267;28;20601;-80
2022/04/30 01:10:10;;;;;;;17.70;12.23;;;10.10;99.90;;;;;;5128182;28;20257;-81
2022/04/30 01:12:37;;;;;;;14.17;11.77;;;10.10;99.90;;;;;;5129584;28;20246;-80
2022/04/30 01:15:07;;;;;;;14.67;12.30;;;10.10;99.90;;;;;;5129780;28;20220;-80
2022/04/30 01:17:35;;;;;;;13.00;11.80;;;9.90;99.90;;;;;;5128971;28;20200;-81
2022/04/30 01:20:04;;;;;;;12.67;11.33;;;9.80;99.90;;;;;;5130696;28;20211;-80
2022/04/30 01:22:34;;;;;;;13.73;11.90;;;9.80;99.90;;;;;;5132772;28;20195;-80
2022/04/30 01:25:03;;;;;;;13.70;11.80;;;9.80;99.90;;;;;;5120543;28;20328;-79
2022/04/30 01:27:31;;;;;;;12.70;11.10;;;10.00;99.90;;;;;;5119348;28;20252;-79
2022/04/30 01:29:59;;;;;;;11.93;10.83;;;10.00;99.90;;;;;;5121578;28;20196;-80
2022/04/30 01:38:00;;;;;;;13.23;11.70;;;9.90;99.90;;;;;;5122315;28;20195;-79
2022/04/30 01:40:28;;;;;;;14.03;12.27;;;9.80;99.90;;;;;;5122920;28;20196;-80
2022/04/30 01:42:58;;;;;;;13.00;11.73;;;9.70;99.90;;;;;;5122577;28;20574;-80
2022/04/30 01:45:25;;;;;;;16.23;12.47;;;9.60;99.90;;;;;;5124736;28;20257;-80
2022/04/30 01:47:52;;;;;;;17.10;13.13;;;9.60;99.90;;;;;;5126651;28;20203;-80
2022/04/30 01:50:19;;;;;;;16.83;13.23;;;9.60;99.90;;;;;;5126059;28;20203;-79
2022/04/30 01:52:47;;;;;;;13.70;12.30;;;9.70;99.90;;;;;;5124239;28;20200;-80
2022/04/30 01:55:14;;;;;;;14.70;13.30;;;9.70;99.90;;;;;;5125899;28;20245;-80
2022/04/30 01:57:43;;;;;;;15.57;13.97;;;9.70;99.90;;;;;;5125591;28;20222;-81
2022/04/30 02:00:12;;;;;;;20.70;14.70;;;9.70;99.90;;;;;;5125736;28;20196;-80
2022/04/30 02:02:41;;;;;;;16.70;15.13;;;9.70;99.90;;;;;;5123085;28;20287;-80
2022/04/30 02:05:12;;;;;;;18.57;16.40;;;9.70;99.90;;;;;;5122787;28;20200;-80
2022/04/30 02:07:42;;;;;;;17.93;16.03;;;9.70;99.90;;;;;;5122876;28;20196;-79
2022/04/30 02:10:12;;;;;;;19.70;17.63;;;9.80;99.90;;;;;;5121085;28;20214;-80
2022/04/30 02:12:40;;;;;;;19.93;17.97;;;9.80;99.90;;;;;;5123710;28;20563;-80
2022/04/30 02:15:10;;;;;;;22.50;17.47;;;9.80;99.90;;;;;;5124021;28;20223;-80
2022/04/30 02:17:41;;;;;;;18.97;17.03;;;9.70;99.90;;;;;;5122855;28;20206;-81
2022/04/30 02:20:26;;;;;;;19.37;17.33;;;9.70;99.90;;;;;;5122950;28;20192;-80
2022/04/30 02:22:55;;;;;;;19.07;17.10;;;9.70;99.90;;;;;;5123054;28;20199;-80
2022/04/30 02:25:23;;;;;;;20.83;18.63;;;9.70;99.90;;;;;;5122175;28;20675;-80
2022/04/30 02:27:52;;;;;;;20.93;18.67;;;9.70;99.90;;;;;;5122827;28;20264;-80
2022/04/30 02:30:22;;;;;;;21.53;18.07;;;9.60;99.90;;;;;;5121474;28;20646;-79
2022/04/30 02:32:50;;;;;;;22.47;18.00;;;9.60;99.90;;;;;;5122835;28;20285;-80
2022/04/30 02:35:19;;;;;;;21.10;17.60;;;9.60;99.90;;;;;;5122724;28;20629;-80
2022/04/30 02:37:48;;;;;;;23.70;17.80;;;9.60;99.90;;;;;;5122378;28;20200;-80
2022/04/30 02:40:17;;;;;;;21.97;19.33;;;9.60;99.90;;;;;;5122445;28;20195;-80
2022/04/30 02:42:44;;;;;;;26.07;18.90;;;9.60;99.90;;;;;;5121833;28;20196;-79
2022/04/30 02:45:12;;;;;;;21.80;18.37;;;9.70;99.90;;;;;;5122634;28;20235;-80
2022/04/30 02:47:43;;;;;;;21.03;18.83;;;9.60;99.90;;;;;;5121338;28;20268;-80
2022/04/30 02:50:12;;;;;;;22.70;18.90;;;9.60;99.90;;;;;;5122808;28;20293;-80
2022/04/30 02:52:41;;;;;;;19.33;17.33;;;9.60;99.90;;;;;;5122187;28;20225;-79
2022/04/30 02:55:09;;;;;;;20.17;18.07;;;9.60;99.90;;;;;;5121859;28;20230;-80
2022/04/30 02:59:53;;;;;;;20.73;18.27;;;9.60;99.90;;;;;;5120635;28;20629;-79
2022/04/30 03:00:29;;;;;;;23.83;19.43;;;9.60;99.90;;;;;;5122457;28;20199;-79
2022/04/30 03:02:57;;;;;;;21.57;18.30;;;9.60;99.90;;;;;;5122471;28;20567;-79
2022/04/30 03:05:25;;;;;;;20.40;18.20;;;9.60;99.90;;;;;;5120209;28;20260;-79
2022/04/30 03:07:52;;;;;;;26.10;18.80;;;9.60;99.90;;;;;;5122696;28;20299;-80
2022/04/30 03:10:19;;;;;;;20.80;18.23;;;9.60;99.90;;;;;;5121045;28;20682;-79
2022/04/30 03:12:46;;;;;;;20.17;17.83;;;9.60;99.90;;;;;;5122045;28;20611;-80
2022/04/30 03:15:13;;;;;;;19.27;17.23;;;9.60;99.90;;;;;;5130770;28;20206;-80
2022/04/30 03:23:10;;;;;;;19.23;17.27;;;9.50;99.90;;;;;;5126658;28;20275;-80
2022/04/30 03:25:37;;;;;;;18.80;16.70;;;9.40;99.90;;;;;;5125323;28;20665;-80
2022/04/30 03:28:05;;;;;;;19.67;17.60;;;9.30;99.90;;;;;;5125556;28;20225;-81
2022/04/30 03:30:34;;;;;;;18.00;16.20;;;9.20;99.90;;;;;;5125545;28;20244;-80
2022/04/30 03:33:01;;;;;;;16.20;14.53;;;9.20;99.90;;;;;;5127952;28;20204;-81
2022/04/30 03:35:29;;;;;;;16.33;14.63;;;9.00;99.90;;;;;;5139819;28;20284;-81
2022/04/30 03:37:56;;;;;;;16.97;15.23;;;9.10;99.90;;;;;;5138453;28;20263;-81
2022/04/30 03:40:22;;;;;;;17.07;15.37;;;9.00;99.90;;;;;;5138147;28;20203;-81
2022/04/30 03:42:49;;;;;;;16.53;14.90;;;9.00;99.90;;;;;;5138770;28;20206;-80
2022/04/30 03:45:16;;;;;;;15.73;14.30;;;9.10;99.90;;;;;;5139361;28;20213;-79
2022/04/30 03:47:43;;;;;;;16.77;15.17;;;9.20;99.90;;;;;;5139537;28;20217;-80
2022/04/30 03:50:10;;;;;;;16.37;14.80;;;9.20;99.90;;;;;;5135153;28;20226;-81
2022/04/30 03:52:39;;;;;;;18.00;15.80;;;9.20;99.90;;;;;;5127372;28;20199;-80
2022/04/30 03:55:07;;;;;;;18.60;16.40;;;9.20;99.90;;;;;;5124759;28;20662;-80
2022/04/30 03:57:35;;;;;;;18.37;16.57;;;9.20;99.90;;;;;;5124726;28;20219;-80
2022/04/30 04:00:01;;;;;;;20.07;18.07;;;9.20;99.90;;;;;;5122166;28;20257;-79
2022/04/30 04:02:29;;;;;;;19.63;17.47;;;9.20;99.90;;;;;;5119569;28;20200;-79
2022/04/30 04:04:55;;;;;;;19.90;17.77;;;9.20;99.90;;;;;;5118796;28;20196;-79
2022/04/30 04:07:22;;;;;;;19.33;17.27;;;9.20;99.90;;;;;;5117687;28;20598;-79
2022/04/30 04:09:50;;;;;;;21.40;17.30;;;9.20;99.90;;;;;;5117183;28;20244;-79
2022/04/30 04:12:17;;;;;;;18.20;16.40;;;9.10;99.90;;;;;;5120463;28;20199;-79
2022/04/30 04:17:38;;;;;;;21.00;16.70;;;9.10;99.90;;;;;;5121175;28;20230;-79
2022/04/30 04:20:06;;;;;;;17.00;15.17;;;9.00;99.90;;;;;;5123545;28;20204;-79
2022/04/30 04:22:33;;;;;;;16.17;14.40;;;8.90;99.90;;;;;;5108857;28;20249;-79
2022/04/30 04:27:45;;;;;;;15.20;13.70;;;8.70;99.90;;;;;;5127714;28;20198;-79
2022/04/30 04:30:12;;;;;;;16.53;14.83;;;8.60;99.90;;;;;;5128188;28;20202;-80
2022/04/30 04:32:39;;;;;;;16.40;14.43;;;8.60;99.90;;;;;;5127863;28;20249;-79
2022/04/30 04:35:06;;;;;;;16.33;14.70;;;8.70;99.90;;;;;;5124107;28;20191;-79
2022/04/30 04:37:33;;;;;;;15.93;14.30;;;8.80;99.90;;;;;;5123702;28;20227;-79
2022/04/30 04:40:01;;;;;;;15.97;14.37;;;8.80;99.90;;;;;;5116716;28;20211;-79
2022/04/30 04:42:28;;;;;;;16.50;14.80;;;8.80;99.90;;;;;;5116131;28;20264;-80
2022/04/30 04:44:54;;;;;;;17.67;15.77;;;8.90;99.90;;;;;;5114680;28;20248;-79
2022/04/30 04:47:21;;;;;;;18.60;15.80;;;9.00;99.90;;;;;;5114529;28;20199;-79
2022/04/30 04:49:48;;;;;;;17.87;15.67;;;9.10;99.90;;;;;;5114712;28;20210;-78
2022/04/30 04:52:15;;;;;;;16.93;15.33;;;9.20;99.90;;;;;;5114568;28;20242;-78
2022/04/30 04:54:41;;;;;;;17.03;14.17;;;9.20;99.90;;;;;;5114849;28;20264;-79
2022/04/30 04:57:09;;;;;;;16.60;14.83;;;9.30;99.90;;;;;;5115243;28;20219;-79
2022/04/30 04:59:36;;;;;;;21.00;15.17;;;9.30;99.90;;;;;;5117282;28;20252;-78
2022/04/30 05:02:03;;;;;;;17.33;14.70;;;9.30;99.90;;;;;;5116371;28;20200;-79
2022/04/30 05:04:31;;;;;;;26.83;15.73;;;9.40;99.90;;;;;;5115655;28;20203;-79
2022/04/30 05:06:58;;;;;;;15.87;14.30;;;9.40;99.90;;;;;;5115448;28;20242;-79
2022/04/30 05:09:26;;;;;;;14.90;13.43;;;9.40;99.90;;;;;;5114994;28;20210;-79
2022/04/30 05:11:52;;;;;;;14.23;12.83;;;9.40;99.90;;;;;;5116922;28;20198;-79
2022/04/30 05:14:21;;;;;;;14.77;13.27;;;9.30;99.90;;;;;;5117113;28;20249;-78
2022/04/30 05:16:48;;;;;;;14.80;13.37;;;9.40;99.90;;;;;;5115381;28;20227;-78
2022/04/30 05:19:14;;;;;;;14.37;12.97;;;9.40;99.90;;;;;;5115544;28;20196;-77
2022/04/30 05:21:41;;;;;;;14.33;12.83;;;9.40;99.90;;;;;;5114838;28;20199;-78
2022/04/30 05:24:08;;;;;;;15.20;12.93;;;9.30;99.90;;;;;;5114759;28;20199;-78
2022/04/30 05:26:37;;;;;;;15.40;12.90;;;9.40;99.90;;;;;;5121736;28;20229;-79
2022/04/30 05:29:03;;;;;;;16.03;13.27;;;9.40;99.90;;;;;;5116225;28;20207;-80
2022/04/30 05:31:32;;;;;;;14.67;12.77;;;9.40;99.90;;;;;;5116784;28;20706;-79
2022/04/30 05:33:58;;;;;;;17.03;13.87;;;9.40;99.90;;;;;;5116882;28;20228;-79
2022/04/30 05:36:25;;;;;;;15.20;13.67;;;9.50;99.90;;;;;;5118551;28;20216;-79
2022/04/30 05:38:52;;;;;;;14.80;13.43;;;9.40;99.90;;;;;;5115166;28;20192;-78
2022/04/30 05:41:18;;;;;;;14.67;13.27;;;9.50;99.90;;;;;;5114916;28;20278;-78
2022/04/30 05:43:45;;;;;;;14.33;12.93;;;9.60;99.90;;;;;;5115164;28;20659;-79
2022/04/30 05:46:13;;;;;;;15.60;14.00;;;9.70;99.90;;;;;;5117088;28;20207;-78
2022/04/30 05:48:41;;;;;;;19.37;16.73;;;9.80;99.90;;;;;;5118944;28;20649;-79
2022/04/30 05:51:07;;;;;;;17.07;15.37;;;9.90;99.90;;;;;;5118984;28;20700;-79
2022/04/30 05:53:34;;;;;;;15.90;13.50;;;10.00;99.90;;;;;;5120743;28;20199;-79
2022/04/30 05:56:02;;;;;;;15.00;13.30;;;10.10;99.90;;;;;;5122595;28;20234;-79
2022/04/30 05:58:28;;;;;;;13.67;12.27;;;10.10;99.90;;;;;;5120462;28;20253;-79
2022/04/30 06:00:56;;;;;;;14.27;12.87;;;10.20;99.90;;;;;;5119408;28;20723;-79
2022/04/30 06:03:23;;;;;;;13.73;12.43;;;10.30;99.90;;;;;;5119900;28;20203;-79
2022/04/30 06:05:51;;;;;;;15.30;12.97;;;10.40;99.90;;;;;;5120905;28;20199;-79
2022/04/30 06:08:18;;;;;;;13.43;12.03;;;10.50;99.90;;;;;;5119557;28;20196;-76
2022/04/30 06:10:45;;;;;;;15.60;12.53;;;10.50;99.90;;;;;;5117109;28;20646;-76
2022/04/30 06:13:11;;;;;;;15.83;12.33;;;10.60;99.90;;;;;;5117340;28;20245;-76
2022/04/30 06:15:38;;;;;;;14.30;12.57;;;10.60;99.90;;;;;;5117524;28;20202;-77
2022/04/30 06:18:05;;;;;;;13.47;12.27;;;10.70;99.90;;;;;;5117664;28;20219;-78
2022/04/30 06:20:32;;;;;;;13.70;12.40;;;10.80;99.90;;;;;;5120066;28;20241;-79
2022/04/30 06:23:00;;;;;;;14.33;12.87;;;11.10;99.90;;;;;;5121290;28;20210;-79
2022/04/30 06:25:27;;;;;;;16.23;12.50;;;11.30;99.90;;;;;;5119686;28;20199;-78
2022/04/30 06:27:54;;;;;;;15.47;12.67;;;11.50;99.90;;;;;;5119583;28;20212;-79
2022/04/30 06:30:21;;;;;;;13.47;12.20;;;11.60;99.90;;;;;;5124256;28;20196;-79
2022/04/30 06:32:48;;;;;;;13.43;12.07;;;11.90;99.90;;;;;;5121499;28;20640;-79
2022/04/30 06:35:18;;;;;;;14.77;11.43;;;12.30;99.90;;;;;;5141732;28;20248;-81
2022/04/30 06:37:46;;;;;;;14.13;11.97;;;12.40;99.90;;;;;;5138641;28;20219;-81
2022/04/30 06:40:14;;;;;;;12.83;11.53;;;12.40;99.90;;;;;;5135607;28;20191;-80
2022/04/30 06:48:39;;;;;;;12.57;11.27;;;12.90;99.90;;;;;;5299617;22;20222;-82
2022/04/30 06:51:06;;;;;;;12.87;11.67;;;13.00;99.90;;;;;;5127640;28;20244;-83
2022/04/30 06:59:09;;;;;;;11.77;10.77;;;13.80;99.90;;;;;;5119003;28;20199;-84
2022/04/30 07:01:40;;;;;;;14.83;11.60;;;13.70;99.90;;;;;;5116765;28;20283;-88
2022/04/30 07:04:07;;;;;;;12.67;11.03;;;13.80;99.90;;;;;;5116519;28;20202;-88
2022/04/30 07:06:35;;;;;;;12.13;10.90;;;14.10;99.90;;;;;;5116783;28;20207;-93
2022/04/30 07:09:02;;;;;;;11.73;10.67;;;14.20;99.90;;;;;;5116852;28;20715;-79
2022/04/30 07:11:30;;;;;;;14.87;11.67;;;14.10;99.90;;;;;;5115474;28;20245;-77
2022/04/30 07:13:57;;;;;;;11.73;10.52;;;14.20;99.90;;;;;;5115436;28;20192;-79
2022/04/30 07:16:24;;;;;;;11.10;10.10;;;14.40;99.90;;;;;;5115139;28;20231;-78
2022/04/30 07:18:51;;;;;;;12.50;11.10;;;14.60;99.90;;;;;;5115149;28;20195;-80
2022/04/30 07:21:18;;;;;;;11.82;10.65;;;14.80;99.90;;;;;;5115705;28;20235;-78
2022/04/30 07:23:44;;;;;;;13.90;10.60;;;15.10;99.90;;;;;;5116398;28;20287;-78
2022/04/30 07:26:11;;;;;;;11.30;10.20;;;15.30;99.90;;;;;;5115498;28;20200;-80
2022/04/30 07:28:39;;;;;;;11.93;9.90;;;15.60;99.90;;;;;;5115586;28;20203;-85
2022/04/30 07:31:07;;;;;;;12.10;9.98;;;15.90;99.90;;;;;;5116018;28;20200;-78
2022/04/30 07:33:33;;;;;;;11.57;10.38;;;16.00;99.90;;;;;;5116740;28;20227;-81
2022/04/30 07:36:00;;;;;;;11.85;10.45;;;16.30;99.90;;;;;;5117672;28;20199;-78
2022/04/30 07:38:27;;;;;;;11.65;10.60;;;16.40;99.90;;;;;;5120043;28;20228;-78
2022/04/30 07:40:53;;;;;;;12.63;11.35;;;16.60;99.90;;;;;;5120029;28;20192;-79
2022/04/30 07:43:20;;;;;;;12.30;11.07;;;16.50;99.90;;;;;;5114629;28;20248;-81
2022/04/30 07:45:48;;;;;;;13.90;11.50;;;16.50;99.90;;;;;;5114553;28;20237;-76
2022/04/30 07:48:15;;;;;;;13.60;10.80;;;16.50;99.90;;;;;;5114301;28;20586;-82
2022/04/30 07:50:44;;;;;;;12.85;11.55;;;16.60;97.20;;;;;;5114155;28;20598;-78
2022/04/30 07:53:13;;;;;;;12.32;11.02;;;16.70;97.90;;;;;;5114394;28;20299;-78
2022/04/30 07:55:40;;;;;;;11.65;10.38;;;16.90;95.60;;;;;;5114233;28;20196;-76
2022/04/30 07:58:07;;;;;;;11.88;10.68;;;17.10;95.80;;;;;;5117668;28;20240;-79
2022/04/30 08:00:34;;;;;;;12.40;11.07;;;17.40;94.80;;;;;;5114198;28;20258;-77
2022/04/30 08:03:03;;;;;;;12.40;11.20;;;17.50;93.60;;;;;;5114154;28;20200;-80
2022/04/30 08:05:30;;;;;;;11.73;10.55;;;17.60;91.50;;;;;;5114436;28;20196;-75
2022/04/30 08:07:57;;;;;;;12.90;10.32;;;17.50;88.50;;;;;;5113626;28;20253;-77
2022/04/30 08:10:24;;;;;;;13.15;11.15;;;17.60;86.70;;;;;;5113969;28;20207;-77
2022/04/30 08:12:54;;;;;;;12.15;10.90;;;17.70;80.20;;;;;;5113954;28;20196;-77
2022/04/30 08:15:21;;;;;;;12.60;11.40;;;17.80;81.60;;;;;;5113837;28;20203;-79
2022/04/30 08:17:48;;;;;;;13.25;10.75;;;18.10;76.70;;;;;;5113688;28;20223;-76
2022/04/30 08:20:16;;;;;;;11.32;10.20;;;18.30;70.30;;;;;;5113829;28;20200;-75
2022/04/30 08:22:42;;;;;;;11.70;10.70;;;18.30;70.70;;;;;;5113695;28;20199;-73
2022/04/30 08:25:10;;;;;;;12.45;11.15;;;17.60;68.80;;;;;;5113616;28;20248;-75
2022/04/30 08:27:36;;;;;;;12.75;11.55;;;17.70;72.20;;;;;;5113565;28;20199;-75
2022/04/30 08:30:04;;;;;;;13.43;12.02;;;18.00;73.40;;;;;;5113476;28;20196;-76
2022/04/30 08:32:31;;;;;;;12.88;11.68;;;18.00;70.40;;;;;;5113416;28;20674;-75
2022/04/30 08:35:01;;;;;;;12.52;11.23;;;18.00;68.90;;;;;;5113533;28;20200;-75
2022/04/30 08:37:29;;;;;;;12.18;11.07;;;18.40;67.90;;;;;;5113378;28;20218;-75
2022/04/30 08:39:56;;;;;;;14.38;11.75;;;18.50;67.20;;;;;;5113416;28;20249;-76
2022/04/30 08:42:24;;;;;;;12.10;11.02;;;18.70;65.10;;;;;;5113928;28;20272;-75
2022/04/30 08:44:51;;;;;;;14.23;12.13;;;18.90;62.40;;;;;;5113201;28;20203;-75
2022/04/30 08:47:18;;;;;;;12.18;11.15;;;18.80;60.30;;;;;;5113179;28;20206;-75
2022/04/30 08:49:44;;;;;;;12.85;11.60;;;18.90;62.20;;;;;;5113476;28;20195;-76
2022/04/30 08:52:13;;;;;;;12.77;11.68;;;19.10;59.80;;;;;;5113331;28;20233;-77
2022/04/30 08:54:41;;;;;;;12.93;11.73;;;19.10;59.20;;;;;;5113293;28;20221;-76
2022/04/30 08:57:08;;;;;;;13.15;11.95;;;19.30;57.70;;;;;;5112850;28;20564;-75
2022/04/30 08:59:34;;;;;;;14.48;11.50;;;19.60;57.50;;;;;;5113088;28;20245;-76
2022/04/30 09:02:02;;;;;;;13.30;11.90;;;19.80;55.80;;;;;;5113390;28;20199;-76
2022/04/30 09:04:42;;;;;;;12.65;11.55;;;19.80;54.80;;;;;;5113210;28;20199;-76
2022/04/30 09:07:14;;;;;;;12.50;11.25;;;19.70;54.00;;;;;;5113119;28;20201;-76
2022/04/30 09:09:42;;;;;;;13.00;11.73;;;19.70;54.20;;;;;;5113101;28;20291;-75
2022/04/30 09:12:10;;;;;;;12.63;11.55;;;19.70;52.30;;;;;;5113173;28;20203;-76
2022/04/30 09:14:40;;;;;;;12.25;11.10;;;19.50;51.60;;;;;;5113153;28;20282;-76
2022/04/30 09:17:09;;;;;;;14.18;12.13;;;19.40;50.80;;;;;;5112906;28;20655;-76
2022/04/30 09:19:47;;;;;;;13.00;11.63;;;18.90;49.40;;;;;;5113353;28;20230;-76
2022/04/30 09:22:14;;;;;;;12.23;11.00;;;19.20;50.30;;;;;;5116907;28;20191;-76
2022/04/30 09:24:50;;;;;;;12.05;10.85;;;19.80;51.40;;;;;;5117350;28;20662;-76
2022/04/30 09:27:18;;;;;;;12.38;11.07;;;20.30;48.30;;;;;;5117530;28;20264;-76
2022/04/30 09:29:45;;;;;;;12.68;11.18;;;19.60;48.70;;;;;;5117011;28;20264;-76
2022/04/30 09:32:17;;;;;;;12.20;11.10;;;19.60;49.00;;;;;;5117105;28;20191;-76
2022/04/30 09:37:42;;;;;;;13.35;12.13;;;20.50;47.60;;;;;;5117168;28;20222;-76
2022/04/30 09:40:20;;;;;;;13.13;11.82;;;20.80;47.60;;;;;;5116726;28;20542;-76
2022/04/30 09:42:48;;;;;;;15.48;14.00;;;20.60;45.50;;;;;;5116676;28;20196;-76
2022/04/30 09:45:27;;;;;;;14.73;13.32;;;19.90;45.00;;;;;;5116583;28;20192;-76
2022/04/30 09:47:54;;;;;;;14.73;13.25;;;19.20;46.10;;;;;;5116632;28;20701;-76
2022/04/30 09:55:54;;;;;;;15.00;13.45;;;18.40;48.60;;;;;;5116744;28;20195;-79
2022/04/30 09:58:24;;;;;;;13.98;12.68;;;18.60;49.60;;;;;;5116679;28;20262;-75
2022/04/30 10:00:54;;;;;;;14.80;13.13;;;18.70;50.20;;;;;;5116904;28;20669;-76
2022/04/30 10:03:27;;;;;;;14.07;12.55;;;19.00;49.50;;;;;;5114572;28;20593;-76
2022/04/30 10:06:00;;;;;;;14.10;12.77;;;18.90;48.40;;;;;;5114485;28;20630;-76
2022/04/30 10:08:28;;;;;;;14.13;12.93;;;18.80;49.30;;;;;;5114446;28;20220;-76
2022/04/30 10:11:15;;;;;;;14.00;12.70;;;18.20;49.40;;;;;;5114348;28;20253;-76
2022/04/30 10:13:50;;;;;;;13.63;12.35;;;18.50;50.50;;;;;;5114298;28;20191;-76
2022/04/30 10:16:23;;;;;;;14.55;13.27;;;18.60;49.80;;;;;;5114363;28;20252;-76
2022/04/30 10:19:08;;;;;;;14.40;12.98;;;18.80;49.50;;;;;;5115943;28;20233;-76
2022/04/30 10:21:35;;;;;;;14.10;12.73;;;18.60;49.90;;;;;;5116581;28;20203;-76
2022/04/30 10:24:02;;;;;;;14.65;13.10;;;18.50;49.80;;;;;;5116032;28;20203;-77
2022/04/30 10:26:30;;;;;;;15.27;13.88;;;18.40;50.10;;;;;;5115857;28;20798;-76
2022/04/30 10:29:01;;;;;;;14.88;13.48;;;18.20;51.50;;;;;;5115857;28;20200;-76
2022/04/30 10:31:28;;;;;;;15.52;14.13;;;18.10;51.00;;;;;;5115465;28;20269;-76
2022/04/30 10:33:55;;;;;;;16.60;14.65;;;17.70;50.50;;;;;;5115802;28;20651;-76
2022/04/30 10:36:22;;;;;;;16.55;15.02;;;17.10;51.80;;;;;;5115850;28;20195;-77
2022/04/30 10:38:59;;;;;;;16.13;14.48;;;17.00;53.40;;;;;;5115774;28;20311;-76
2022/04/30 10:41:27;;;;;;;15.07;13.38;;;17.10;53.30;;;;;;5115655;28;20206;-77
2022/04/30 10:44:04;;;;;;;16.70;15.02;;;17.10;53.90;;;;;;5115748;28;20196;-76
2022/04/30 10:46:38;;;;;;;17.17;14.70;;;17.10;54.20;;;;;;5115826;28;20600;-77
2022/04/30 10:49:06;;;;;;;16.05;14.55;;;17.00;57.50;;;;;;5115777;28;20230;-75
2022/04/30 10:51:38;;;;;;;15.30;13.90;;;17.10;61.60;;;;;;5115654;28;20623;-76
2022/04/30 10:54:09;;;;;;;17.77;14.80;;;17.10;58.20;;;;;;5115705;28;20196;-76
2022/04/30 10:56:36;;;;;;;17.15;14.23;;;17.10;65.20;;;;;;5115666;28;20544;-75
2022/04/30 10:59:04;;;;;;;16.42;14.02;;;17.10;67.20;;;;;;5115499;28;20226;-76
2022/04/30 11:01:30;;;;;;;16.23;13.55;;;17.10;67.20;;;;;;5115446;28;20200;-76
2022/04/30 11:03:57;;;;;;;16.23;14.63;;;17.00;71.00;;;;;;5115320;28;20252;-77
2022/04/30 11:06:25;;;;;;;17.27;15.68;;;17.00;71.60;;;;;;5115408;28;20610;-77
2022/04/30 11:09:02;;;;;;;16.55;14.93;;;17.00;84.50;;;;;;5115503;28;20269;-77
2022/04/30 11:11:29;;;;;;;14.63;13.07;;;17.00;90.80;;;;;;5115410;28;20195;-77
2022/04/30 11:14:05;;;;;;;15.60;14.02;;;16.80;90.80;;;;;;5115055;28;20211;-76
2022/04/30 11:16:33;;;;;;;15.55;14.05;;;16.80;91.90;;;;;;5115071;28;20252;-76
2022/04/30 11:19:03;;;;;;;13.50;12.30;;;16.70;94.90;;;;;;5115843;28;20224;-76
2022/04/30 11:21:34;;;;;;;14.27;12.98;;;16.80;94.50;;;;;;5121656;28;20662;-82
2022/04/30 11:24:01;;;;;;;14.07;12.68;;;16.90;99.90;;;;;;5117640;28;20567;-80
2022/04/30 11:26:29;;;;;;;14.20;12.90;;;17.20;99.90;;;;;;5124519;28;20600;-79
2022/04/30 11:28:56;;;;;;;13.43;12.10;;;17.30;98.90;;;;;;5115577;28;20678;-77
2022/04/30 11:31:24;;;;;;;13.57;12.27;;;17.40;99.00;;;;;;5114121;28;20249;-77
2022/04/30 11:33:51;;;;;;;13.27;12.10;;;17.50;95.10;;;;;;5114524;28;20200;-79
2022/04/30 11:36:18;;;;;;;13.65;12.45;;;17.70;93.70;;;;;;5114653;28;20195;-78
2022/04/30 11:38:52;;;;;;;13.45;12.30;;;17.80;88.10;;;;;;5096370;28;20310;-76
2022/04/30 11:41:19;;;;;;;15.07;12.60;;;18.00;82.60;;;;;;5104995;28;20192;-77
2022/04/30 11:43:46;;;;;;;13.90;12.50;;;18.10;81.80;;;;;;5113313;28;20253;-77
2022/04/30 11:46:15;;;;;;;14.50;13.20;;;18.10;77.60;;;;;;5113759;28;20192;-78
2022/04/30 11:48:42;;;;;;;14.13;12.73;;;17.80;78.60;;;;;;5114324;28;20307;-77
2022/04/30 11:51:10;;;;;;;14.35;12.95;;;17.70;76.30;;;;;;5113895;28;20241;-77
2022/04/30 11:53:37;;;;;;;15.93;14.43;;;17.40;72.30;;;;;;5114481;28;20199;-77
2022/04/30 11:56:04;;;;;;;16.65;15.02;;;17.00;80.60;;;;;;5113564;28;20225;-78
2022/04/30 11:58:41;;;;;;;16.48;15.07;;;16.50;93.20;;;;;;5113893;28;20219;-78
2022/04/30 12:01:18;;;;;;;17.02;15.38;;;15.70;99.90;;;;;;5114471;28;20191;-79
2022/04/30 12:03:46;;;;;;;16.63;14.98;;;15.30;99.90;;;;;;5114447;28;20252;-78
2022/04/30 12:06:13;;;;;;;16.65;15.10;;;15.00;99.90;;;;;;5114132;28;20711;-80
2022/04/30 12:08:40;;;;;;;18.43;16.53;;;14.80;99.90;;;;;;5114033;28;20199;-80
2022/04/30 12:11:07;;;;;;;26.55;18.45;;;14.70;99.90;;;;;;5113811;28;20203;-79
2022/04/30 12:13:34;;;;;;;34.00;22.77;;;14.60;99.90;;;;;;5114168;28;20647;-77
2022/04/30 12:16:05;;;;;;;25.93;23.33;;;13.90;99.90;;;;;;5114186;28;20196;-76
2022/04/30 12:26:56;;;;;;;24.03;21.63;;;12.20;99.90;;;;;;5114505;28;20199;-76
2022/04/30 12:29:24;;;;;;;24.00;21.57;;;12.10;99.90;;;;;;5114423;28;20218;-76
2022/04/30 12:31:52;;;;;;;25.10;22.60;;;11.90;99.90;;;;;;5124039;28;20196;-74
2022/04/30 12:34:20;;;;;;;25.30;22.73;;;12.00;99.90;;;;;;5115893;28;20196;-75
2022/04/30 12:36:55;;;;;;;24.80;22.27;;;12.10;99.90;;;;;;5114379;28;20244;-75
2022/04/30 12:39:23;;;;;;;25.50;22.90;;;12.60;99.90;;;;;;5113429;28;20219;-75
2022/04/30 12:41:50;;;;;;;22.30;20.20;;;13.00;99.90;;;;;;5113441;28;20550;-76
2022/04/30 12:44:17;;;;;;;19.20;17.30;;;13.10;99.90;;;;;;5114031;28;20207;-75
2022/04/30 12:46:44;;;;;;;18.63;16.83;;;13.30;99.90;;;;;;5114200;28;20226;-76
2022/04/30 12:49:13;;;;;;;19.17;17.17;;;13.50;99.90;;;;;;5113772;28;20318;-77
2022/04/30 12:51:40;;;;;;;17.83;16.17;;;13.50;99.90;;;;;;5113943;28;20196;-77
2022/04/30 12:54:10;;;;;;;17.83;16.23;;;13.70;99.90;;;;;;5113826;28;20208;-77
2022/04/30 12:56:37;;;;;;;19.07;17.07;;;13.90;99.90;;;;;;5113864;28;20192;-77
2022/04/30 12:59:04;;;;;;;17.20;15.60;;;14.00;99.90;;;;;;5113699;28;20235;-77
2022/04/30 13:01:31;;;;;;;18.57;16.87;;;13.70;99.90;;;;;;5113658;28;20192;-77
2022/04/30 13:03:57;;;;;;;19.03;17.27;;;13.70;99.90;;;;;;5114026;28;20207;-78
2022/04/30 13:06:24;;;;;;;18.70;16.90;;;14.10;99.90;;;;;;5113935;28;20731;-78
2022/04/30 13:14:21;;;;;;;18.77;16.87;;;14.90;99.90;;;;;;5114275;28;20203;-80
2022/04/30 13:16:50;;;;;;;18.37;16.67;;;14.90;99.90;;;;;;5114222;28;20196;-80
2022/04/30 13:19:16;;;;;;;18.90;17.20;;;14.70;99.90;;;;;;5115043;28;20227;-81
2022/04/30 13:21:46;;;;;;;18.50;16.70;;;14.90;99.90;;;;;;5113693;28;20200;-79
2022/04/30 13:24:13;;;;;;;17.20;15.70;;;15.00;99.90;;;;;;5113602;28;20196;-78
2022/04/30 13:26:41;;;;;;;18.38;16.77;;;14.80;99.90;;;;;;5114326;28;20191;-83